sensor_id;sensor_type;location;lat;lon;timestamp;pressure;altitude;pressure_sealevel;temperature;humidity
79144;BME280;68551;47.484;19.092;2023-05-29T00:02:14;100345.50;;;17.53;51.18
79144;BME280;68551;47.484;19.092;2023-05-29T00:05:17;100351.78;;;17.39;52.40
79144;BME280;68551;47.484;19.092;2023-05-29T00:08:22;100360.19;;;17.12;53.33
79144;BME280;68551;47.484;19.092;2023-05-29T00:11:26;100338.13;;;17.07;53.19
79144;BME280;68551;47.484;19.092;2023-05-29T00:14:28;100354.13;;;17.10;53.13
79144;BME280;68551;47.484;19.092;2023-05-29T00:17:31;100344.78;;;17.11;52.36
79144;BME280;68551;47.484;19.092;2023-05-29T00:20:36;100355.81;;;17.21;52.41
79144;BME280;68551;47.484;19.092;2023-05-29T00:23:42;100340.09;;;17.11;52.70
79144;BME280;68551;47.484;19.092;2023-05-29T00:26:47;100347.53;;;17.16;52.76
79144;BME280;68551;47.484;19.092;2023-05-29T00:29:52;100347.00;;;17.19;52.26
79144;BME280;68551;47.484;19.092;2023-05-29T00:32:57;100356.66;;;17.21;52.63
79144;BME280;68551;47.484;19.092;2023-05-29T00:35:59;100362.44;;;17.20;52.49
79144;BME280;68551;47.484;19.092;2023-05-29T00:39:02;100358.00;;;17.19;52.45
79144;BME280;68551;47.484;19.092;2023-05-29T00:42:07;100350.34;;;17.26;51.61
79144;BME280;68551;47.484;19.092;2023-05-29T00:45:09;100351.44;;;17.25;51.63
79144;BME280;68551;47.484;19.092;2023-05-29T00:48:12;100341.53;;;17.24;51.72
79144;BME280;68551;47.484;19.092;2023-05-29T00:51:15;100350.84;;;17.18;51.65
79144;BME280;68551;47.484;19.092;2023-05-29T00:54:25;100352.25;;;17.20;51.99
79144;BME280;68551;47.484;19.092;2023-05-29T00:57:28;100342.50;;;17.02;52.67
79144;BME280;68551;47.484;19.092;2023-05-29T01:00:31;100336.47;;;17.06;52.49
79144;BME280;68551;47.484;19.092;2023-05-29T01:03:35;100339.44;;;16.94;53.00
79144;BME280;68551;47.484;19.092;2023-05-29T01:06:40;100332.25;;;16.83;53.05
79144;BME280;68551;47.484;19.092;2023-05-29T01:09:46;100347.31;;;16.75;53.32
79144;BME280;68551;47.484;19.092;2023-05-29T01:13:10;100346.00;;;16.83;53.11
79144;BME280;68551;47.484;19.092;2023-05-29T01:30:16;100317.66;;;16.87;53.06
79144;BME280;68551;47.484;19.092;2023-05-29T01:33:21;100321.97;;;16.73;53.67
79144;BME280;68551;47.484;19.092;2023-05-29T01:36:25;100318.56;;;16.61;54.04
79144;BME280;68551;47.484;19.092;2023-05-29T01:39:32;100321.22;;;16.46;54.13
79144;BME280;68551;47.484;19.092;2023-05-29T01:42:37;100323.75;;;16.52;54.70
79144;BME280;68551;47.484;19.092;2023-05-29T01:45:39;100304.34;;;16.32;54.85
79144;BME280;68551;47.484;19.092;2023-05-29T01:48:43;100327.69;;;16.29;55.33
79144;BME280;68551;47.484;19.092;2023-05-29T01:51:48;100317.28;;;16.31;54.46
79144;BME280;68551;47.484;19.092;2023-05-29T01:54:51;100325.53;;;16.31;54.31
79144;BME280;68551;47.484;19.092;2023-05-29T01:57:54;100328.19;;;16.21;54.89
79144;BME280;68551;47.484;19.092;2023-05-29T02:00:58;100324.53;;;16.11;55.25
79144;BME280;68551;47.484;19.092;2023-05-29T02:04:03;100314.41;;;16.16;55.37
79144;BME280;68551;47.484;19.092;2023-05-29T02:07:07;100319.91;;;16.16;55.39
79144;BME280;68551;47.484;19.092;2023-05-29T02:10:14;100311.75;;;16.26;55.18
79144;BME280;68551;47.484;19.092;2023-05-29T02:13:19;100308.34;;;16.14;56.00
79144;BME280;68551;47.484;19.092;2023-05-29T02:16:23;100303.97;;;16.18;55.56
79144;BME280;68551;47.484;19.092;2023-05-29T02:19:25;100305.03;;;16.12;56.14
79144;BME280;68551;47.484;19.092;2023-05-29T02:22:29;100302.25;;;16.07;56.58
79144;BME280;68551;47.484;19.092;2023-05-29T02:25:35;100297.63;;;16.13;56.03
79144;BME280;68551;47.484;19.092;2023-05-29T02:28:40;100306.69;;;16.13;56.47
79144;BME280;68551;47.484;19.092;2023-05-29T02:31:43;100309.72;;;16.12;56.79
79144;BME280;68551;47.484;19.092;2023-05-29T02:34:48;100311.63;;;16.11;57.00
79144;BME280;68551;47.484;19.092;2023-05-29T02:37:56;100298.31;;;15.98;57.36
79144;BME280;68551;47.484;19.092;2023-05-29T02:40:59;100303.84;;;16.03;57.38
79144;BME280;68551;47.484;19.092;2023-05-29T02:44:01;100297.25;;;15.99;57.57
79144;BME280;68551;47.484;19.092;2023-05-29T02:47:05;100297.78;;;16.01;57.64
79144;BME280;68551;47.484;19.092;2023-05-29T02:50:12;100286.72;;;15.91;57.96
79144;BME280;68551;47.484;19.092;2023-05-29T02:53:19;100287.84;;;15.95;57.81
79144;BME280;68551;47.484;19.092;2023-05-29T02:56:24;100293.03;;;15.91;58.15
79144;BME280;68551;47.484;19.092;2023-05-29T02:59:27;100294.44;;;15.94;58.21
79144;BME280;68551;47.484;19.092;2023-05-29T03:02:29;100291.88;;;15.87;58.49
79144;BME280;68551;47.484;19.092;2023-05-29T03:05:32;100290.78;;;15.83;58.89
79144;BME280;68551;47.484;19.092;2023-05-29T03:08:34;100291.13;;;15.92;58.57
79144;BME280;68551;47.484;19.092;2023-05-29T03:11:38;100296.56;;;15.87;58.65
79144;BME280;68551;47.484;19.092;2023-05-29T03:14:45;100291.88;;;15.82;58.69
79144;BME280;68551;47.484;19.092;2023-05-29T03:17:50;100294.63;;;15.82;58.74
79144;BME280;68551;47.484;19.092;2023-05-29T03:21:00;100293.78;;;15.82;58.90
79144;BME280;68551;47.484;19.092;2023-05-29T03:24:10;100294.34;;;15.84;59.14
79144;BME280;68551;47.484;19.092;2023-05-29T03:27:14;100302.59;;;15.84;59.20
79144;BME280;68551;47.484;19.092;2023-05-29T03:30:20;100305.81;;;15.76;59.67
79144;BME280;68551;47.484;19.092;2023-05-29T03:33:24;100312.44;;;15.80;59.71
79144;BME280;68551;47.484;19.092;2023-05-29T03:36:53;100311.88;;;15.78;59.51
79144;BME280;68551;47.484;19.092;2023-05-29T03:40:03;100318.50;;;15.82;59.69
79144;BME280;68551;47.484;19.092;2023-05-29T03:43:12;100318.81;;;15.85;59.06
79144;BME280;68551;47.484;19.092;2023-05-29T03:46:17;100323.34;;;15.70;59.94
79144;BME280;68551;47.484;19.092;2023-05-29T03:49:27;100304.56;;;15.62;60.41
79144;BME280;68551;47.484;19.092;2023-05-29T03:52:32;100335.41;;;15.69;60.60
79144;BME280;68551;47.484;19.092;2023-05-29T03:55:34;100322.59;;;15.79;60.09
79144;BME280;68551;47.484;19.092;2023-05-29T03:58:37;100335.03;;;15.87;60.06
79144;BME280;68551;47.484;19.092;2023-05-29T04:01:42;100328.50;;;15.93;59.68
79144;BME280;68551;47.484;19.092;2023-05-29T04:04:48;100338.41;;;15.94;60.06
79144;BME280;68551;47.484;19.092;2023-05-29T04:07:57;100335.22;;;16.07;59.52
79144;BME280;68551;47.484;19.092;2023-05-29T04:11:18;100334.00;;;16.25;59.00
79144;BME280;68551;47.484;19.092;2023-05-29T04:14:23;100327.44;;;16.31;58.86
79144;BME280;68551;47.484;19.092;2023-05-29T04:17:25;100334.09;;;16.35;58.81
79144;BME280;68551;47.484;19.092;2023-05-29T04:20:30;100347.00;;;16.35;58.88
79144;BME280;68551;47.484;19.092;2023-05-29T04:23:37;100342.19;;;16.52;57.96
79144;BME280;68551;47.484;19.092;2023-05-29T04:26:39;100331.84;;;16.64;57.71
79144;BME280;68551;47.484;19.092;2023-05-29T04:29:45;100334.72;;;16.84;57.18
79144;BME280;68551;47.484;19.092;2023-05-29T04:32:48;100342.47;;;16.92;57.01
79144;BME280;68551;47.484;19.092;2023-05-29T04:35:58;100340.84;;;17.01;56.29
79144;BME280;68551;47.484;19.092;2023-05-29T04:39:03;100342.56;;;17.13;56.11
79144;BME280;68551;47.484;19.092;2023-05-29T04:42:06;100349.53;;;17.25;56.04
79144;BME280;68551;47.484;19.092;2023-05-29T04:45:10;100338.28;;;17.47;54.73
79144;BME280;68551;47.484;19.092;2023-05-29T04:48:17;100347.44;;;17.63;54.59
79144;BME280;68551;47.484;19.092;2023-05-29T04:51:24;100337.28;;;17.68;53.93
79144;BME280;68551;47.484;19.092;2023-05-29T04:54:27;100351.66;;;17.91;54.13
79144;BME280;68551;47.484;19.092;2023-05-29T04:57:32;100337.88;;;18.01;53.89
79144;BME280;68551;47.484;19.092;2023-05-29T05:00:37;100347.81;;;18.02;53.82
79144;BME280;68551;47.484;19.092;2023-05-29T05:03:42;100341.75;;;18.20;53.44
79144;BME280;68551;47.484;19.092;2023-05-29T05:06:44;100344.78;;;18.39;52.97
79144;BME280;68551;47.484;19.092;2023-05-29T05:09:52;100339.84;;;18.66;52.16
79144;BME280;68551;47.484;19.092;2023-05-29T05:13:00;100337.34;;;18.65;51.87
79144;BME280;68551;47.484;19.092;2023-05-29T05:16:05;100347.19;;;19.01;51.05
79144;BME280;68551;47.484;19.092;2023-05-29T05:19:15;100338.84;;;19.17;50.81
79144;BME280;68551;47.484;19.092;2023-05-29T05:22:19;100349.25;;;19.40;49.97
79144;BME280;68551;47.484;19.092;2023-05-29T05:25:23;100336.53;;;19.49;49.82
79144;BME280;68551;47.484;19.092;2023-05-29T05:28:28;100349.50;;;19.98;48.57
79144;BME280;68551;47.484;19.092;2023-05-29T05:31:33;100350.56;;;20.07;48.74
79144;BME280;68551;47.484;19.092;2023-05-29T05:34:38;100345.94;;;20.31;47.58
79144;BME280;68551;47.484;19.092;2023-05-29T05:37:41;100346.31;;;20.53;47.24
79144;BME280;68551;47.484;19.092;2023-05-29T05:40:46;100348.81;;;20.79;46.82
79144;BME280;68551;47.484;19.092;2023-05-29T05:43:58;100349.06;;;21.06;45.97
79144;BME280;68551;47.484;19.092;2023-05-29T05:47:09;100343.44;;;21.16;45.89
79144;BME280;68551;47.484;19.092;2023-05-29T05:50:15;100346.50;;;21.39;45.50
79144;BME280;68551;47.484;19.092;2023-05-29T05:53:22;100350.66;;;21.79;44.23
79144;BME280;68551;47.484;19.092;2023-05-29T05:56:27;100341.44;;;21.83;44.02
79144;BME280;68551;47.484;19.092;2023-05-29T05:59:29;100352.78;;;22.06;43.79
79144;BME280;68551;47.484;19.092;2023-05-29T06:02:32;100332.44;;;22.29;43.40
79144;BME280;68551;47.484;19.092;2023-05-29T06:05:37;100344.66;;;22.60;42.44
79144;BME280;68551;47.484;19.092;2023-05-29T06:08:40;100351.44;;;23.01;41.84
79144;BME280;68551;47.484;19.092;2023-05-29T06:11:46;100349.91;;;23.08;41.25
79144;BME280;68551;47.484;19.092;2023-05-29T06:14:56;100347.41;;;23.48;40.02
79144;BME280;68551;47.484;19.092;2023-05-29T06:17:58;100350.34;;;23.92;39.00
79144;BME280;68551;47.484;19.092;2023-05-29T06:21:06;100361.97;;;23.94;39.34
79144;BME280;68551;47.484;19.092;2023-05-29T06:24:18;100365.38;;;23.91;39.01
79144;BME280;68551;47.484;19.092;2023-05-29T06:27:23;100365.94;;;23.80;39.59
79144;BME280;68551;47.484;19.092;2023-05-29T06:30:32;100361.59;;;24.23;38.97
79144;BME280;68551;47.484;19.092;2023-05-29T06:33:40;100362.66;;;24.14;39.21
79144;BME280;68551;47.484;19.092;2023-05-29T06:36:43;100362.47;;;24.32;38.74
79144;BME280;68551;47.484;19.092;2023-05-29T06:39:48;100365.31;;;24.63;38.35
79144;BME280;68551;47.484;19.092;2023-05-29T06:42:52;100364.09;;;25.40;37.05
79144;BME280;68551;47.484;19.092;2023-05-29T06:46:10;100368.47;;;25.89;36.52
79144;BME280;68551;47.484;19.092;2023-05-29T06:49:18;100363.88;;;26.02;35.21
79144;BME280;68551;47.484;19.092;2023-05-29T06:52:21;100364.84;;;25.89;35.75
79144;BME280;68551;47.484;19.092;2023-05-29T06:55:59;100369.66;;;26.23;35.61
79144;BME280;68551;47.484;19.092;2023-05-29T06:59:01;100368.50;;;26.50;35.80
79144;BME280;68551;47.484;19.092;2023-05-29T07:02:08;100369.97;;;26.47;35.09
79144;BME280;68551;47.484;19.092;2023-05-29T07:05:13;100368.06;;;27.03;34.53
79144;BME280;68551;47.484;19.092;2023-05-29T07:08:22;100376.50;;;26.68;34.31
79144;BME280;68551;47.484;19.092;2023-05-29T07:11:28;100377.84;;;26.19;35.17
79144;BME280;68551;47.484;19.092;2023-05-29T07:14:33;100371.56;;;24.38;38.66
79144;BME280;68551;47.484;19.092;2023-05-29T07:17:36;100379.25;;;23.42;41.17
79144;BME280;68551;47.484;19.092;2023-05-29T07:20:56;100386.78;;;23.55;41.24
79144;BME280;68551;47.484;19.092;2023-05-29T07:24:02;100385.28;;;23.98;40.85
79144;BME280;68551;47.484;19.092;2023-05-29T07:27:04;100396.22;;;22.99;42.41
79144;BME280;68551;47.484;19.092;2023-05-29T07:30:10;100391.28;;;22.96;43.00
79144;BME280;68551;47.484;19.092;2023-05-29T07:33:13;100402.78;;;23.03;43.41
79144;BME280;68551;47.484;19.092;2023-05-29T07:36:15;100402.81;;;23.30;43.37
79144;BME280;68551;47.484;19.092;2023-05-29T07:43:09;100417.81;;;23.02;44.32
79144;BME280;68551;47.484;19.092;2023-05-29T07:46:23;100425.25;;;23.07;43.87
79144;BME280;68551;47.484;19.092;2023-05-29T07:49:40;100423.00;;;23.22;43.95
79144;BME280;68551;47.484;19.092;2023-05-29T07:52:43;100431.78;;;23.16;43.98
79144;BME280;68551;47.484;19.092;2023-05-29T07:55:48;100419.44;;;23.63;43.04
79144;BME280;68551;47.484;19.092;2023-05-29T07:58:51;100416.03;;;23.66;42.83
79144;BME280;68551;47.484;19.092;2023-05-29T08:02:01;100413.94;;;23.44;42.36
79144;BME280;68551;47.484;19.092;2023-05-29T08:05:19;100410.47;;;24.16;41.01
79144;BME280;68551;47.484;19.092;2023-05-29T08:08:21;100406.06;;;25.35;38.66
79144;BME280;68551;47.484;19.092;2023-05-29T08:11:28;100404.41;;;25.65;37.94
79144;BME280;68551;47.484;19.092;2023-05-29T08:14:35;100399.53;;;25.96;36.76
79144;BME280;68551;47.484;19.092;2023-05-29T08:17:39;100402.97;;;26.79;35.96
79144;BME280;68551;47.484;19.092;2023-05-29T08:20:48;100400.53;;;26.61;35.63
79144;BME280;68551;47.484;19.092;2023-05-29T08:23:53;100405.00;;;26.36;35.69
79144;BME280;68551;47.484;19.092;2023-05-29T08:26:55;100407.91;;;27.76;34.09
79144;BME280;68551;47.484;19.092;2023-05-29T08:29:58;100399.13;;;28.07;33.69
79144;BME280;68551;47.484;19.092;2023-05-29T08:33:00;100390.94;;;28.43;32.25
79144;BME280;68551;47.484;19.092;2023-05-29T08:36:05;100393.19;;;29.16;32.12
79144;BME280;68551;47.484;19.092;2023-05-29T08:39:10;100388.50;;;30.05;30.51
79144;BME280;68551;47.484;19.092;2023-05-29T08:45:24;100379.78;;;30.22;29.41
79144;BME280;68551;47.484;19.092;2023-05-29T08:48:30;100377.66;;;28.52;32.22
79144;BME280;68551;47.484;19.092;2023-05-29T08:51:37;100388.84;;;28.73;31.76
79144;BME280;68551;47.484;19.092;2023-05-29T08:54:40;100372.13;;;28.44;32.87
79144;BME280;68551;47.484;19.092;2023-05-29T08:57:44;100377.69;;;28.85;32.89
79144;BME280;68551;47.484;19.092;2023-05-29T09:00:50;100374.44;;;29.20;31.54
79144;BME280;68551;47.484;19.092;2023-05-29T09:03:59;100370.47;;;27.22;34.73
79144;BME280;68551;47.484;19.092;2023-05-29T09:07:02;100394.44;;;26.76;35.54
79144;BME280;68551;47.484;19.092;2023-05-29T09:10:09;100383.53;;;27.09;35.33
79144;BME280;68551;47.484;19.092;2023-05-29T09:13:14;100386.41;;;28.09;34.73
79144;BME280;68551;47.484;19.092;2023-05-29T09:16:19;100393.13;;;27.29;35.07
79144;BME280;68551;47.484;19.092;2023-05-29T09:19:24;100403.44;;;26.90;35.44
79144;BME280;68551;47.484;19.092;2023-05-29T09:22:27;100400.06;;;26.50;36.29
79144;BME280;68551;47.484;19.092;2023-05-29T09:25:31;100403.00;;;26.45;36.39
79144;BME280;68551;47.484;19.092;2023-05-29T09:28:36;100395.59;;;26.66;36.71
79144;BME280;68551;47.484;19.092;2023-05-29T09:31:46;100399.19;;;25.41;38.48
79144;BME280;68551;47.484;19.092;2023-05-29T09:34:59;100395.41;;;25.94;37.87
79144;BME280;68551;47.484;19.092;2023-05-29T09:38:02;100384.78;;;24.86;39.22
79144;BME280;68551;47.484;19.092;2023-05-29T09:41:10;100396.03;;;24.94;39.45
79144;BME280;68551;47.484;19.092;2023-05-29T09:44:15;100397.63;;;24.42;40.45
79144;BME280;68551;47.484;19.092;2023-05-29T09:47:18;100399.78;;;24.45;40.27
79144;BME280;68551;47.484;19.092;2023-05-29T09:50:26;100397.44;;;24.61;40.37
79144;BME280;68551;47.484;19.092;2023-05-29T09:53:30;100399.41;;;24.38;40.51
79144;BME280;68551;47.484;19.092;2023-05-29T09:56:32;100405.22;;;24.28;40.95
79144;BME280;68551;47.484;19.092;2023-05-29T09:59:39;100405.63;;;24.21;41.35
79144;BME280;68551;47.484;19.092;2023-05-29T10:02:46;100415.16;;;24.07;41.92
79144;BME280;68551;47.484;19.092;2023-05-29T10:05:54;100404.25;;;23.96;41.67
79144;BME280;68551;47.484;19.092;2023-05-29T10:08:59;100408.22;;;23.68;42.79
79144;BME280;68551;47.484;19.092;2023-05-29T10:12:03;100424.28;;;23.44;43.48
79144;BME280;68551;47.484;19.092;2023-05-29T10:15:13;100415.41;;;23.28;44.80
79144;BME280;68551;47.484;19.092;2023-05-29T10:18:21;100417.88;;;23.29;45.63
79144;BME280;68551;47.484;19.092;2023-05-29T10:21:32;100418.88;;;23.20;46.54
79144;BME280;68551;47.484;19.092;2023-05-29T10:24:37;100428.72;;;22.85;47.15
79144;BME280;68551;47.484;19.092;2023-05-29T10:27:41;100429.31;;;22.82;47.44
79144;BME280;68551;47.484;19.092;2023-05-29T10:31:00;100428.13;;;22.88;47.88
79144;BME280;68551;47.484;19.092;2023-05-29T10:34:29;100429.56;;;22.99;48.07
79144;BME280;68551;47.484;19.092;2023-05-29T10:47:33;100407.78;;;22.74;50.29
79144;BME280;68551;47.484;19.092;2023-05-29T10:53:47;100416.47;;;22.86;49.14
79144;BME280;68551;47.484;19.092;2023-05-29T10:56:57;100404.03;;;22.97;49.87
79144;BME280;68551;47.484;19.092;2023-05-29T11:00:07;100415.72;;;22.80;50.07
79144;BME280;68551;47.484;19.092;2023-05-29T11:03:15;100407.81;;;22.36;50.55
79144;BME280;68551;47.484;19.092;2023-05-29T11:06:23;100414.06;;;22.60;49.65
79144;BME280;68551;47.484;19.092;2023-05-29T11:09:34;100405.00;;;22.74;48.18
79144;BME280;68551;47.484;19.092;2023-05-29T11:13:03;100405.00;;;22.74;47.41
79144;BME280;68551;47.484;19.092;2023-05-29T11:19:33;100406.44;;;22.52;47.95
79144;BME280;68551;47.484;19.092;2023-05-29T11:22:53;100403.41;;;22.35;48.42
79144;BME280;68551;47.484;19.092;2023-05-29T11:26:04;100400.78;;;22.76;47.14
79144;BME280;68551;47.484;19.092;2023-05-29T11:29:07;100397.56;;;23.02;46.64
79144;BME280;68551;47.484;19.092;2023-05-29T11:32:15;100400.22;;;22.93;45.88
79144;BME280;68551;47.484;19.092;2023-05-29T11:35:22;100393.22;;;22.95;45.28
79144;BME280;68551;47.484;19.092;2023-05-29T11:38:28;100396.25;;;23.26;44.89
79144;BME280;68551;47.484;19.092;2023-05-29T11:41:32;100392.84;;;23.43;45.52
79144;BME280;68551;47.484;19.092;2023-05-29T11:44:43;100379.06;;;23.52;44.66
79144;BME280;68551;47.484;19.092;2023-05-29T11:50:58;100365.47;;;24.00;44.38
79144;BME280;68551;47.484;19.092;2023-05-29T11:54:05;100364.78;;;24.17;44.43
79144;BME280;68551;47.484;19.092;2023-05-29T11:57:08;100355.84;;;24.42;43.57
79144;BME280;68551;47.484;19.092;2023-05-29T12:00:20;100351.41;;;24.63;42.97
79144;BME280;68551;47.484;19.092;2023-05-29T12:03:27;100339.47;;;24.71;42.71
79144;BME280;68551;47.484;19.092;2023-05-29T12:06:33;100336.25;;;24.87;43.47
79144;BME280;68551;47.484;19.092;2023-05-29T12:09:41;100332.19;;;24.93;42.32
79144;BME280;68551;47.484;19.092;2023-05-29T12:12:48;100335.41;;;25.08;42.86
79144;BME280;68551;47.484;19.092;2023-05-29T12:15:56;100334.88;;;24.98;42.21
79144;BME280;68551;47.484;19.092;2023-05-29T12:19:00;100315.38;;;24.98;42.25
79144;BME280;68551;47.484;19.092;2023-05-29T12:22:02;100312.59;;;24.98;41.50
79144;BME280;68551;47.484;19.092;2023-05-29T12:28:20;100319.31;;;24.97;41.39
79144;BME280;68551;47.484;19.092;2023-05-29T12:31:29;100309.53;;;25.17;41.42
79144;BME280;68551;47.484;19.092;2023-05-29T12:34:37;100309.19;;;25.18;40.13
79144;BME280;68551;47.484;19.092;2023-05-29T12:37:48;100305.88;;;24.77;40.28
79144;BME280;68551;47.484;19.092;2023-05-29T12:40:54;100297.50;;;24.68;40.44
79144;BME280;68551;47.484;19.092;2023-05-29T12:44:02;100292.47;;;24.79;40.64
79144;BME280;68551;47.484;19.092;2023-05-29T12:47:07;100300.13;;;25.04;39.44
79144;BME280;68551;47.484;19.092;2023-05-29T12:50:28;100294.47;;;25.35;39.90
79144;BME280;68551;47.484;19.092;2023-05-29T12:53:33;100298.28;;;25.48;39.87
79144;BME280;68551;47.484;19.092;2023-05-29T12:56:41;100293.03;;;25.55;39.22
79144;BME280;68551;47.484;19.092;2023-05-29T12:59:46;100289.78;;;25.70;38.33
79144;BME280;68551;47.484;19.092;2023-05-29T13:02:51;100291.06;;;25.47;39.02
79144;BME280;68551;47.484;19.092;2023-05-29T13:06:01;100293.03;;;25.55;38.56
79144;BME280;68551;47.484;19.092;2023-05-29T13:09:04;100292.38;;;25.58;38.77
79144;BME280;68551;47.484;19.092;2023-05-29T13:12:07;100287.81;;;25.70;38.16
79144;BME280;68551;47.484;19.092;2023-05-29T13:15:16;100297.84;;;25.97;39.12
79144;BME280;68551;47.484;19.092;2023-05-29T13:18:23;100283.88;;;25.97;38.78
79144;BME280;68551;47.484;19.092;2023-05-29T13:21:31;100294.56;;;26.04;37.83
79144;BME280;68551;47.484;19.092;2023-05-29T13:24:34;100289.47;;;26.06;37.57
79144;BME280;68551;47.484;19.092;2023-05-29T13:27:40;100289.94;;;26.17;36.95
79144;BME280;68551;47.484;19.092;2023-05-29T13:30:44;100280.91;;;26.20;37.97
79144;BME280;68551;47.484;19.092;2023-05-29T13:33:47;100280.56;;;26.12;39.01
79144;BME280;68551;47.484;19.092;2023-05-29T13:36:52;100277.97;;;26.07;39.03
79144;BME280;68551;47.484;19.092;2023-05-29T13:39:54;100271.56;;;26.07;39.26
79144;BME280;68551;47.484;19.092;2023-05-29T13:42:59;100270.22;;;26.13;38.48
79144;BME280;68551;47.484;19.092;2023-05-29T13:46:02;100274.69;;;26.05;38.65
79144;BME280;68551;47.484;19.092;2023-05-29T13:49:07;100282.06;;;26.01;39.86
79144;BME280;68551;47.484;19.092;2023-05-29T13:52:09;100276.66;;;25.88;39.47
79144;BME280;68551;47.484;19.092;2023-05-29T13:55:12;100277.63;;;25.83;40.58
79144;BME280;68551;47.484;19.092;2023-05-29T13:58:14;100275.19;;;25.82;41.28
79144;BME280;68551;47.484;19.092;2023-05-29T14:01:19;100279.44;;;25.70;40.50
79144;BME280;68551;47.484;19.092;2023-05-29T14:04:21;100263.22;;;25.64;40.49
79144;BME280;68551;47.484;19.092;2023-05-29T14:07:26;100276.09;;;25.34;40.52
79144;BME280;68551;47.484;19.092;2023-05-29T14:10:28;100260.09;;;25.00;41.57
79144;BME280;68551;47.484;19.092;2023-05-29T14:13:34;100260.78;;;25.14;42.04
79144;BME280;68551;47.484;19.092;2023-05-29T14:16:39;100265.13;;;25.37;41.97
79144;BME280;68551;47.484;19.092;2023-05-29T14:19:42;100270.22;;;25.53;42.25
79144;BME280;68551;47.484;19.092;2023-05-29T14:22:47;100257.25;;;25.57;40.21
79144;BME280;68551;47.484;19.092;2023-05-29T14:25:50;100268.72;;;25.47;40.81
79144;BME280;68551;47.484;19.092;2023-05-29T14:28:56;100268.41;;;25.39;40.50
79144;BME280;68551;47.484;19.092;2023-05-29T14:32:14;100267.75;;;25.51;39.95
79144;BME280;68551;47.484;19.092;2023-05-29T14:35:17;100265.19;;;25.63;40.42
79144;BME280;68551;47.484;19.092;2023-05-29T14:38:22;100264.84;;;25.65;39.84
79144;BME280;68551;47.484;19.092;2023-05-29T14:41:25;100262.06;;;25.65;39.62
79144;BME280;68551;47.484;19.092;2023-05-29T14:44:30;100264.47;;;25.58;39.36
79144;BME280;68551;47.484;19.092;2023-05-29T14:47:35;100262.19;;;25.60;39.88
79144;BME280;68551;47.484;19.092;2023-05-29T14:50:43;100258.75;;;25.71;39.51
79144;BME280;68551;47.484;19.092;2023-05-29T14:53:45;100255.00;;;25.76;40.22
79144;BME280;68551;47.484;19.092;2023-05-29T14:56:49;100263.22;;;25.81;39.23
79144;BME280;68551;47.484;19.092;2023-05-29T14:59:52;100256.47;;;25.73;38.76
79144;BME280;68551;47.484;19.092;2023-05-29T15:02:55;100265.13;;;25.55;38.92
79144;BME280;68551;47.484;19.092;2023-05-29T15:06:04;100256.25;;;25.35;39.15
79144;BME280;68551;47.484;19.092;2023-05-29T15:09:07;100255.56;;;25.21;39.81
79144;BME280;68551;47.484;19.092;2023-05-29T15:12:11;100254.75;;;25.29;39.30
79144;BME280;68551;47.484;19.092;2023-05-29T15:15:16;100264.28;;;25.37;39.70
79144;BME280;68551;47.484;19.092;2023-05-29T15:18:21;100257.34;;;25.17;40.54
79144;BME280;68551;47.484;19.092;2023-05-29T15:21:25;100259.13;;;24.96;41.67
79144;BME280;68551;47.484;19.092;2023-05-29T15:24:28;100251.09;;;24.72;42.72
79144;BME280;68551;47.484;19.092;2023-05-29T15:27:30;100256.66;;;24.63;43.03
79144;BME280;68551;47.484;19.092;2023-05-29T15:30:39;100246.78;;;24.57;40.85
79144;BME280;68551;47.484;19.092;2023-05-29T15:33:42;100251.72;;;24.60;39.55
79144;BME280;68551;47.484;19.092;2023-05-29T15:36:44;100255.19;;;24.66;37.15
79144;BME280;68551;47.484;19.092;2023-05-29T15:39:47;100244.06;;;24.74;38.47
79144;BME280;68551;47.484;19.092;2023-05-29T15:42:49;100247.25;;;24.90;38.29
79144;BME280;68551;47.484;19.092;2023-05-29T15:45:54;100246.00;;;24.96;37.66
79144;BME280;68551;47.484;19.092;2023-05-29T15:48:57;100237.97;;;25.03;39.04
79144;BME280;68551;47.484;19.092;2023-05-29T15:51:59;100238.78;;;25.04;39.30
79144;BME280;68551;47.484;19.092;2023-05-29T15:55:01;100240.44;;;25.05;38.77
79144;BME280;68551;47.484;19.092;2023-05-29T15:58:05;100235.69;;;25.05;39.51
79144;BME280;68551;47.484;19.092;2023-05-29T16:01:08;100235.50;;;25.02;40.03
79144;BME280;68551;47.484;19.092;2023-05-29T16:04:10;100229.78;;;24.98;40.41
79144;BME280;68551;47.484;19.092;2023-05-29T16:07:17;100232.88;;;24.97;39.83
79144;BME280;68551;47.484;19.092;2023-05-29T16:10:22;100231.25;;;24.96;39.98
79144;BME280;68551;47.484;19.092;2023-05-29T16:13:31;100231.25;;;24.96;40.35
79144;BME280;68551;47.484;19.092;2023-05-29T16:16:42;100222.97;;;24.91;40.47
79144;BME280;68551;47.484;19.092;2023-05-29T16:19:44;100228.56;;;24.91;40.65
79144;BME280;68551;47.484;19.092;2023-05-29T16:22:49;100233.94;;;24.87;41.54
79144;BME280;68551;47.484;19.092;2023-05-29T16:25:54;100229.69;;;24.90;41.41
79144;BME280;68551;47.484;19.092;2023-05-29T16:29:03;100234.94;;;24.91;41.70
79144;BME280;68551;47.484;19.092;2023-05-29T16:32:07;100230.34;;;24.87;41.22
79144;BME280;68551;47.484;19.092;2023-05-29T16:35:14;100230.50;;;24.82;40.61
79144;BME280;68551;47.484;19.092;2023-05-29T16:38:19;100235.91;;;24.78;40.55
79144;BME280;68551;47.484;19.092;2023-05-29T16:41:21;100222.59;;;24.75;40.42
79144;BME280;68551;47.484;19.092;2023-05-29T16:44:26;100229.00;;;24.76;41.04